sensor_id;sensor_type;location;lat;lon;timestamp;temperature;humidity
15872;DHT22;8035;51.962;7.162;2023-02-26T00:02:15;1.20;99.90
15872;DHT22;8035;51.962;7.162;2023-02-26T00:04:41;1.20;99.90
15872;DHT22;8035;51.962;7.162;2023-02-26T00:07:06;1.20;99.90
15872;DHT22;8035;51.962;7.162;2023-02-26T00:09:32;1.20;99.90
15872;DHT22;8035;51.962;7.162;2023-02-26T00:11:58;1.10;99.90
15872;DHT22;8035;51.962;7.162;2023-02-26T00:14:25;1.10;99.90
15872;DHT22;8035;51.962;7.162;2023-02-26T00:17:14;1.10;99.90
15872;DHT22;8035;51.962;7.162;2023-02-26T00:19:42;1.10;99.90
15872;DHT22;8035;51.962;7.162;2023-02-26T00:22:08;1.00;99.90
15872;DHT22;8035;51.962;7.162;2023-02-26T00:24:34;1.00;99.90
15872;DHT22;8035;51.962;7.162;2023-02-26T00:27:00;1.00;99.90
15872;DHT22;8035;51.962;7.162;2023-02-26T00:29:25;1.00;99.90
15872;DHT22;8035;51.962;7.162;2023-02-26T00:31:51;1.00;99.90
15872;DHT22;8035;51.962;7.162;2023-02-26T00:34:17;1.00;99.90
15872;DHT22;8035;51.962;7.162;2023-02-26T00:36:59;0.90;99.90
15872;DHT22;8035;51.962;7.162;2023-02-26T00:42:18;0.80;99.90
15872;DHT22;8035;51.962;7.162;2023-02-26T00:44:44;0.70;99.90
15872;DHT22;8035;51.962;7.162;2023-02-26T00:47:16;0.60;99.90
15872;DHT22;8035;51.962;7.162;2023-02-26T00:52:36;0.50;99.90
15872;DHT22;8035;51.962;7.162;2023-02-26T00:55:04;0.40;99.90
15872;DHT22;8035;51.962;7.162;2023-02-26T00:57:29;0.40;99.90
15872;DHT22;8035;51.962;7.162;2023-02-26T00:59:55;0.40;99.90
15872;DHT22;8035;51.962;7.162;2023-02-26T01:02:21;0.30;99.90
15872;DHT22;8035;51.962;7.162;2023-02-26T01:04:47;0.20;99.90
15872;DHT22;8035;51.962;7.162;2023-02-26T01:07:13;0.20;99.90
15872;DHT22;8035;51.962;7.162;2023-02-26T01:09:40;0.10;99.90
15872;DHT22;8035;51.962;7.162;2023-02-26T01:12:10;0.10;99.90
15872;DHT22;8035;51.962;7.162;2023-02-26T01:14:42;0.10;99.90
15872;DHT22;8035;51.962;7.162;2023-02-26T01:17:31;0.00;99.90
15872;DHT22;8035;51.962;7.162;2023-02-26T01:20:19;0.00;99.90
15872;DHT22;8035;51.962;7.162;2023-02-26T01:28:06;-0.10;99.90
15872;DHT22;8035;51.962;7.162;2023-02-26T01:30:32;-0.20;99.90
15872;DHT22;8035;51.962;7.162;2023-02-26T01:35:52;-0.20;99.90
15872;DHT22;8035;51.962;7.162;2023-02-26T01:41:35;-0.30;99.90
15872;DHT22;8035;51.962;7.162;2023-02-26T01:47:16;-0.40;99.90
15872;DHT22;8035;51.962;7.162;2023-02-26T01:49:43;-0.40;99.90
15872;DHT22;8035;51.962;7.162;2023-02-26T01:54:56;-0.40;99.90
15872;DHT22;8035;51.962;7.162;2023-02-26T01:57:22;-0.40;99.90
15872;DHT22;8035;51.962;7.162;2023-02-26T01:59:50;-0.50;99.90
15872;DHT22;8035;51.962;7.162;2023-02-26T02:02:23;-0.50;99.90
15872;DHT22;8035;51.962;7.162;2023-02-26T02:04:50;-0.50;99.90
15872;DHT22;8035;51.962;7.162;2023-02-26T02:07:16;-0.50;99.90
15872;DHT22;8035;51.962;7.162;2023-02-26T02:09:43;-0.50;99.90
15872;DHT22;8035;51.962;7.162;2023-02-26T02:15:15;-0.50;99.90
15872;DHT22;8035;51.962;7.162;2023-02-26T02:26:43;-0.60;99.90
15872;DHT22;8035;51.962;7.162;2023-02-26T02:32:29;-0.60;99.90
15872;DHT22;8035;51.962;7.162;2023-02-26T02:35:13;-0.60;99.90
15872;DHT22;8035;51.962;7.162;2023-02-26T02:37:46;-0.60;99.90
15872;DHT22;8035;51.962;7.162;2023-02-26T02:40:24;-0.70;99.90
15872;DHT22;8035;51.962;7.162;2023-02-26T02:43:03;-0.70;99.90
15872;DHT22;8035;51.962;7.162;2023-02-26T02:45:46;-0.70;99.90
15872;DHT22;8035;51.962;7.162;2023-02-26T02:50:52;-0.80;99.90
15872;DHT22;8035;51.962;7.162;2023-02-26T02:53:25;-0.70;99.90
15872;DHT22;8035;51.962;7.162;2023-02-26T02:56:04;-0.80;99.90
15872;DHT22;8035;51.962;7.162;2023-02-26T02:58:36;-0.80;99.90
15872;DHT22;8035;51.962;7.162;2023-02-26T03:01:06;-0.80;99.90
15872;DHT22;8035;51.962;7.162;2023-02-26T03:03:45;-0.80;99.90
15872;DHT22;8035;51.962;7.162;2023-02-26T03:06:14;-0.90;99.90
15872;DHT22;8035;51.962;7.162;2023-02-26T03:09:00;-0.80;99.90
15872;DHT22;8035;51.962;7.162;2023-02-26T03:11:26;-0.80;99.90
15872;DHT22;8035;51.962;7.162;2023-02-26T03:13:52;-0.90;99.90
15872;DHT22;8035;51.962;7.162;2023-02-26T03:21:44;-0.90;99.90
15872;DHT22;8035;51.962;7.162;2023-02-26T03:26:55;-0.90;99.90
15872;DHT22;8035;51.962;7.162;2023-02-26T03:31:58;-1.00;99.90
15872;DHT22;8035;51.962;7.162;2023-02-26T03:34:48;-0.90;99.90
15872;DHT22;8035;51.962;7.162;2023-02-26T03:37:34;-1.00;99.90
15872;DHT22;8035;51.962;7.162;2023-02-26T03:40:07;-1.00;99.90
15872;DHT22;8035;51.962;7.162;2023-02-26T03:42:45;-1.00;99.90
15872;DHT22;8035;51.962;7.162;2023-02-26T03:45:22;-1.00;99.90
15872;DHT22;8035;51.962;7.162;2023-02-26T03:47:50;-1.00;99.90
15872;DHT22;8035;51.962;7.162;2023-02-26T03:51:07;-1.00;99.90
15872;DHT22;8035;51.962;7.162;2023-02-26T03:53:15;-1.10;99.90
15872;DHT22;8035;51.962;7.162;2023-02-26T03:55:48;-1.10;99.90
15872;DHT22;8035;51.962;7.162;2023-02-26T03:58:15;-1.10;99.90
15872;DHT22;8035;51.962;7.162;2023-02-26T04:00:44;-1.10;99.90
15872;DHT22;8035;51.962;7.162;2023-02-26T04:03:15;-1.10;99.90
15872;DHT22;8035;51.962;7.162;2023-02-26T04:05:46;-1.20;99.90
15872;DHT22;8035;51.962;7.162;2023-02-26T04:08:13;-1.20;99.90
15872;DHT22;8035;51.962;7.162;2023-02-26T04:11:26;-1.20;99.90
15872;DHT22;8035;51.962;7.162;2023-02-26T04:13:27;-1.20;99.90
15872;DHT22;8035;51.962;7.162;2023-02-26T04:15:53;-1.20;99.90
15872;DHT22;8035;51.962;7.162;2023-02-26T04:18:19;-1.20;99.90
15872;DHT22;8035;51.962;7.162;2023-02-26T04:20:44;-1.20;99.90
15872;DHT22;8035;51.962;7.162;2023-02-26T04:23:10;-1.20;99.90
15872;DHT22;8035;51.962;7.162;2023-02-26T04:25:36;-1.20;99.90
15872;DHT22;8035;51.962;7.162;2023-02-26T04:28:01;-1.20;99.90
15872;DHT22;8035;51.962;7.162;2023-02-26T04:30:27;-1.20;99.90
15872;DHT22;8035;51.962;7.162;2023-02-26T04:32:53;-1.20;99.90
15872;DHT22;8035;51.962;7.162;2023-02-26T04:35:18;-1.30;99.90
15872;DHT22;8035;51.962;7.162;2023-02-26T04:37:44;-1.30;99.90
15872;DHT22;8035;51.962;7.162;2023-02-26T04:40:10;-1.30;99.90
15872;DHT22;8035;51.962;7.162;2023-02-26T04:42:36;-1.30;99.90
15872;DHT22;8035;51.962;7.162;2023-02-26T04:45:02;-1.30;99.90
15872;DHT22;8035;51.962;7.162;2023-02-26T04:47:28;-1.30;99.90
15872;DHT22;8035;51.962;7.162;2023-02-26T04:49:54;-1.30;99.90
15872;DHT22;8035;51.962;7.162;2023-02-26T04:52:19;-1.30;99.90
15872;DHT22;8035;51.962;7.162;2023-02-26T04:54:45;-1.40;99.90
15872;DHT22;8035;51.962;7.162;2023-02-26T04:57:10;-1.40;99.90
15872;DHT22;8035;51.962;7.162;2023-02-26T04:59:36;-1.40;99.90
15872;DHT22;8035;51.962;7.162;2023-02-26T05:02:04;-1.40;99.90
15872;DHT22;8035;51.962;7.162;2023-02-26T05:04:30;-1.40;99.90
15872;DHT22;8035;51.962;7.162;2023-02-26T05:06:55;-1.40;99.90
15872;DHT22;8035;51.962;7.162;2023-02-26T05:09:40;-1.40;99.90
15872;DHT22;8035;51.962;7.162;2023-02-26T05:12:05;-1.50;99.90
15872;DHT22;8035;51.962;7.162;2023-02-26T05:14:31;-1.50;99.90
15872;DHT22;8035;51.962;7.162;2023-02-26T05:16:57;-1.50;99.90
15872;DHT22;8035;51.962;7.162;2023-02-26T05:19:22;-1.50;99.90
15872;DHT22;8035;51.962;7.162;2023-02-26T05:21:48;-1.50;99.90
15872;DHT22;8035;51.962;7.162;2023-02-26T05:24:15;-1.50;99.90
15872;DHT22;8035;51.962;7.162;2023-02-26T05:26:41;-1.50;99.90
15872;DHT22;8035;51.962;7.162;2023-02-26T05:29:06;-1.50;99.90
15872;DHT22;8035;51.962;7.162;2023-02-26T05:31:32;-1.50;99.90
15872;DHT22;8035;51.962;7.162;2023-02-26T05:33:58;-1.50;99.90
15872;DHT22;8035;51.962;7.162;2023-02-26T05:36:23;-1.60;99.90
15872;DHT22;8035;51.962;7.162;2023-02-26T05:38:49;-1.60;99.90
15872;DHT22;8035;51.962;7.162;2023-02-26T05:41:15;-1.60;99.90
15872;DHT22;8035;51.962;7.162;2023-02-26T05:43:40;-1.60;99.90
15872;DHT22;8035;51.962;7.162;2023-02-26T05:46:06;-1.60;99.90
15872;DHT22;8035;51.962;7.162;2023-02-26T05:48:32;-1.60;99.90
15872;DHT22;8035;51.962;7.162;2023-02-26T05:50:58;-1.60;99.90
15872;DHT22;8035;51.962;7.162;2023-02-26T05:53:24;-1.60;99.90
15872;DHT22;8035;51.962;7.162;2023-02-26T05:55:52;-1.60;99.90
15872;DHT22;8035;51.962;7.162;2023-02-26T05:58:18;-1.60;99.90
15872;DHT22;8035;51.962;7.162;2023-02-26T06:00:43;-1.70;99.90
15872;DHT22;8035;51.962;7.162;2023-02-26T06:03:09;-1.70;99.90
15872;DHT22;8035;51.962;7.162;2023-02-26T06:08:19;-1.70;99.90
15872;DHT22;8035;51.962;7.162;2023-02-26T06:10:45;-1.70;99.90
15872;DHT22;8035;51.962;7.162;2023-02-26T06:13:10;-1.70;99.90
15872;DHT22;8035;51.962;7.162;2023-02-26T06:15:36;-1.70;99.90
15872;DHT22;8035;51.962;7.162;2023-02-26T06:18:01;-1.80;99.90
15872;DHT22;8035;51.962;7.162;2023-02-26T06:23:12;-1.80;99.90
15872;DHT22;8035;51.962;7.162;2023-02-26T06:25:40;-1.80;99.90
15872;DHT22;8035;51.962;7.162;2023-02-26T06:28:06;-1.80;99.90
15872;DHT22;8035;51.962;7.162;2023-02-26T06:30:32;-1.80;99.90
15872;DHT22;8035;51.962;7.162;2023-02-26T06:35:41;-1.80;99.90
15872;DHT22;8035;51.962;7.162;2023-02-26T06:38:09;-1.80;99.90
15872;DHT22;8035;51.962;7.162;2023-02-26T06:40:34;-1.80;99.90
15872;DHT22;8035;51.962;7.162;2023-02-26T06:43:00;-1.80;99.90
15872;DHT22;8035;51.962;7.162;2023-02-26T06:45:26;-1.80;99.90
15872;DHT22;8035;51.962;7.162;2023-02-26T06:47:51;-1.70;99.90
15872;DHT22;8035;51.962;7.162;2023-02-26T06:50:17;-1.70;99.90
15872;DHT22;8035;51.962;7.162;2023-02-26T06:52:43;-1.70;99.90
15872;DHT22;8035;51.962;7.162;2023-02-26T06:55:09;-1.70;99.90
15872;DHT22;8035;51.962;7.162;2023-02-26T06:57:35;-1.70;99.90
15872;DHT22;8035;51.962;7.162;2023-02-26T07:00:00;-1.70;99.90
15872;DHT22;8035;51.962;7.162;2023-02-26T07:02:27;-1.60;99.90
15872;DHT22;8035;51.962;7.162;2023-02-26T07:04:52;-1.60;99.90
15872;DHT22;8035;51.962;7.162;2023-02-26T07:07:18;-1.60;99.90
15872;DHT22;8035;51.962;7.162;2023-02-26T07:09:44;-1.60;99.90
15872;DHT22;8035;51.962;7.162;2023-02-26T07:12:09;-1.50;99.90
15872;DHT22;8035;51.962;7.162;2023-02-26T07:14:35;-1.50;99.90
15872;DHT22;8035;51.962;7.162;2023-02-26T07:17:01;-1.50;99.90
15872;DHT22;8035;51.962;7.162;2023-02-26T07:19:27;-1.40;99.90
15872;DHT22;8035;51.962;7.162;2023-02-26T07:21:53;-1.40;99.90
15872;DHT22;8035;51.962;7.162;2023-02-26T07:24:20;-1.30;99.90
15872;DHT22;8035;51.962;7.162;2023-02-26T07:26:46;-1.30;99.90
15872;DHT22;8035;51.962;7.162;2023-02-26T07:29:12;-1.20;99.90
15872;DHT22;8035;51.962;7.162;2023-02-26T07:31:38;-1.10;99.90
15872;DHT22;8035;51.962;7.162;2023-02-26T07:34:03;-1.00;99.90
15872;DHT22;8035;51.962;7.162;2023-02-26T07:36:29;-1.00;99.90
15872;DHT22;8035;51.962;7.162;2023-02-26T07:38:55;-0.90;99.90
15872;DHT22;8035;51.962;7.162;2023-02-26T07:41:20;-0.80;99.90
15872;DHT22;8035;51.962;7.162;2023-02-26T07:43:46;-0.70;99.90
15872;DHT22;8035;51.962;7.162;2023-02-26T07:46:12;-0.10;99.90
15872;DHT22;8035;51.962;7.162;2023-02-26T07:48:38;1.00;99.90
15872;DHT22;8035;51.962;7.162;2023-02-26T07:51:04;2.20;99.90
15872;DHT22;8035;51.962;7.162;2023-02-26T07:53:31;3.20;99.90
15872;DHT22;8035;51.962;7.162;2023-02-26T07:55:57;4.00;99.90
15872;DHT22;8035;51.962;7.162;2023-02-26T07:58:22;4.80;99.90
15872;DHT22;8035;51.962;7.162;2023-02-26T08:00:48;5.30;99.90
15872;DHT22;8035;51.962;7.162;2023-02-26T08:03:14;5.70;99.90
15872;DHT22;8035;51.962;7.162;2023-02-26T08:05:40;6.00;99.90
15872;DHT22;8035;51.962;7.162;2023-02-26T08:08:05;6.20;99.90
15872;DHT22;8035;51.962;7.162;2023-02-26T08:10:31;6.10;99.90
15872;DHT22;8035;51.962;7.162;2023-02-26T08:12:57;6.30;99.90
15872;DHT22;8035;51.962;7.162;2023-02-26T08:15:23;6.70;99.90
15872;DHT22;8035;51.962;7.162;2023-02-26T08:17:51;7.10;99.90
15872;DHT22;8035;51.962;7.162;2023-02-26T08:20:18;7.40;99.90
15872;DHT22;8035;51.962;7.162;2023-02-26T08:22:43;7.80;99.90
15872;DHT22;8035;51.962;7.162;2023-02-26T08:25:09;8.20;99.90
15872;DHT22;8035;51.962;7.162;2023-02-26T08:27:35;8.70;99.90
15872;DHT22;8035;51.962;7.162;2023-02-26T08:30:01;8.40;99.90
15872;DHT22;8035;51.962;7.162;2023-02-26T08:32:27;8.50;99.90
15872;DHT22;8035;51.962;7.162;2023-02-26T08:34:54;9.10;99.90
15872;DHT22;8035;51.962;7.162;2023-02-26T08:37:20;9.20;99.90
15872;DHT22;8035;51.962;7.162;2023-02-26T08:39:48;9.10;99.90
15872;DHT22;8035;51.962;7.162;2023-02-26T08:42:14;8.90;99.90
15872;DHT22;8035;51.962;7.162;2023-02-26T08:44:42;8.70;99.90
15872;DHT22;8035;51.962;7.162;2023-02-26T08:47:08;8.60;99.90
15872;DHT22;8035;51.962;7.162;2023-02-26T08:49:34;8.90;99.90
15872;DHT22;8035;51.962;7.162;2023-02-26T08:51:59;9.20;99.90
15872;DHT22;8035;51.962;7.162;2023-02-26T08:54:25;9.40;99.90
15872;DHT22;8035;51.962;7.162;2023-02-26T08:56:51;9.80;99.90
15872;DHT22;8035;51.962;7.162;2023-02-26T08:59:20;10.20;99.90
15872;DHT22;8035;51.962;7.162;2023-02-26T09:01:46;10.20;99.90
15872;DHT22;8035;51.962;7.162;2023-02-26T09:04:11;10.30;99.90
15872;DHT22;8035;51.962;7.162;2023-02-26T09:06:37;10.70;99.90
15872;DHT22;8035;51.962;7.162;2023-02-26T09:09:03;10.80;99.90
15872;DHT22;8035;51.962;7.162;2023-02-26T09:11:28;10.90;99.90
15872;DHT22;8035;51.962;7.162;2023-02-26T09:13:55;10.40;99.90
15872;DHT22;8035;51.962;7.162;2023-02-26T09:16:23;10.30;99.90
15872;DHT22;8035;51.962;7.162;2023-02-26T09:18:49;10.60;99.90
15872;DHT22;8035;51.962;7.162;2023-02-26T09:21:15;11.20;99.90
15872;DHT22;8035;51.962;7.162;2023-02-26T09:23:40;11.00;99.90
15872;DHT22;8035;51.962;7.162;2023-02-26T09:26:06;11.10;99.90
15872;DHT22;8035;51.962;7.162;2023-02-26T09:28:33;11.40;99.90
15872;DHT22;8035;51.962;7.162;2023-02-26T09:30:59;11.70;99.90
15872;DHT22;8035;51.962;7.162;2023-02-26T09:33:24;12.00;99.90
15872;DHT22;8035;51.962;7.162;2023-02-26T09:35:51;11.70;99.90
15872;DHT22;8035;51.962;7.162;2023-02-26T09:38:17;11.50;99.90
15872;DHT22;8035;51.962;7.162;2023-02-26T09:41:02;11.80;99.90
15872;DHT22;8035;51.962;7.162;2023-02-26T09:48:53;11.90;99.90
15872;DHT22;8035;51.962;7.162;2023-02-26T09:51:23;11.50;99.90
15872;DHT22;8035;51.962;7.162;2023-02-26T09:53:50;11.20;99.90
15872;DHT22;8035;51.962;7.162;2023-02-26T09:56:19;11.20;99.90
15872;DHT22;8035;51.962;7.162;2023-02-26T09:58:46;10.80;99.90
15872;DHT22;8035;51.962;7.162;2023-02-26T10:12:33;10.70;98.60
15872;DHT22;8035;51.962;7.162;2023-02-26T10:15:13;9.80;99.10
15872;DHT22;8035;51.962;7.162;2023-02-26T10:20:56;8.30;99.90
15872;DHT22;8035;51.962;7.162;2023-02-26T10:26:06;9.00;99.90
15872;DHT22;8035;51.962;7.162;2023-02-26T10:36:47;8.60;99.90
15872;DHT22;8035;51.962;7.162;2023-02-26T10:41:45;8.10;99.90
15872;DHT22;8035;51.962;7.162;2023-02-26T10:44:19;7.80;99.90
15872;DHT22;8035;51.962;7.162;2023-02-26T10:47:07;7.60;99.90
15872;DHT22;8035;51.962;7.162;2023-02-26T10:52:16;7.20;99.90
15872;DHT22;8035;51.962;7.162;2023-02-26T10:57:34;6.70;99.90
15872;DHT22;8035;51.962;7.162;2023-02-26T11:00:05;6.90;99.90
15872;DHT22;8035;51.962;7.162;2023-02-26T11:02:38;6.90;99.90
15872;DHT22;8035;51.962;7.162;2023-02-26T11:05:12;7.10;99.90
15872;DHT22;8035;51.962;7.162;2023-02-26T11:07:40;7.10;99.80
15872;DHT22;8035;51.962;7.162;2023-02-26T11:10:15;6.60;99.90
15872;DHT22;8035;51.962;7.162;2023-02-26T11:12:41;6.30;99.90
15872;DHT22;8035;51.962;7.162;2023-02-26T11:15:12;6.00;99.90
15872;DHT22;8035;51.962;7.162;2023-02-26T11:17:38;5.60;99.90
15872;DHT22;8035;51.962;7.162;2023-02-26T11:22:52;5.70;99.90
15872;DHT22;8035;51.962;7.162;2023-02-26T11:25:26;6.10;99.90
15872;DHT22;8035;51.962;7.162;2023-02-26T11:28:57;6.50;99.90
15872;DHT22;8035;51.962;7.162;2023-02-26T11:30:51;6.90;99.90
15872;DHT22;8035;51.962;7.162;2023-02-26T11:33:35;7.40;99.90
15872;DHT22;8035;51.962;7.162;2023-02-26T11:36:05;7.60;99.90
15872;DHT22;8035;51.962;7.162;2023-02-26T11:38:32;7.80;99.90
15872;DHT22;8035;51.962;7.162;2023-02-26T11:41:00;7.80;99.90
15872;DHT22;8035;51.962;7.162;2023-02-26T11:43:34;7.70;99.90
15872;DHT22;8035;51.962;7.162;2023-02-26T11:46:01;7.80;99.90
15872;DHT22;8035;51.962;7.162;2023-02-26T11:51:03;7.50;99.90
15872;DHT22;8035;51.962;7.162;2023-02-26T11:53:42;7.50;99.90
15872;DHT22;8035;51.962;7.162;2023-02-26T11:56:12;7.70;99.90
15872;DHT22;8035;51.962;7.162;2023-02-26T11:58:40;8.00;99.90
15872;DHT22;8035;51.962;7.162;2023-02-26T12:01:08;7.90;99.90
15872;DHT22;8035;51.962;7.162;2023-02-26T12:03:37;7.70;99.90
15872;DHT22;8035;51.962;7.162;2023-02-26T12:06:09;7.60;99.90
15872;DHT22;8035;51.962;7.162;2023-02-26T12:08:40;7.40;99.90
15872;DHT22;8035;51.962;7.162;2023-02-26T12:47:32;6.80;99.70
15872;DHT22;8035;51.962;7.162;2023-02-26T12:50:08;6.60;99.30
15872;DHT22;8035;51.962;7.162;2023-02-26T12:52:58;6.20;99.40
15872;DHT22;8035;51.962;7.162;2023-02-26T12:58:48;6.50;99.90
15872;DHT22;8035;51.962;7.162;2023-02-26T13:06:49;7.20;99.90
15872;DHT22;8035;51.962;7.162;2023-02-26T13:14:42;7.30;99.90
15872;DHT22;8035;51.962;7.162;2023-02-26T13:20:02;7.40;99.60
15872;DHT22;8035;51.962;7.162;2023-02-26T13:22:36;7.30;99.50
15872;DHT22;8035;51.962;7.162;2023-02-26T13:25:47;7.20;99.10
15872;DHT22;8035;51.962;7.162;2023-02-26T13:28:20;7.10;99.90
15872;DHT22;8035;51.962;7.162;2023-02-26T13:30:53;7.20;99.90
15872;DHT22;8035;51.962;7.162;2023-02-26T13:33:23;7.20;99.90
15872;DHT22;8035;51.962;7.162;2023-02-26T13:35:52;7.30;99.80
15872;DHT22;8035;51.962;7.162;2023-02-26T13:39:06;7.20;99.90
15872;DHT22;8035;51.962;7.162;2023-02-26T13:44:04;7.00;99.70
15872;DHT22;8035;51.962;7.162;2023-02-26T13:49:22;6.90;99.50
15872;DHT22;8035;51.962;7.162;2023-02-26T13:51:52;7.00;99.90
15872;DHT22;8035;51.962;7.162;2023-02-26T13:54:44;6.80;99.90
15872;DHT22;8035;51.962;7.162;2023-02-26T14:11:41;7.00;98.60
15872;DHT22;8035;51.962;7.162;2023-02-26T14:16:44;6.70;99.30
15872;DHT22;8035;51.962;7.162;2023-02-26T14:22:20;6.40;99.90
15872;DHT22;8035;51.962;7.162;2023-02-26T14:30:17;7.00;99.90
15872;DHT22;8035;51.962;7.162;2023-02-26T14:35:27;7.00;99.90
15872;DHT22;8035;51.962;7.162;2023-02-26T14:41:13;6.90;99.40
15872;DHT22;8035;51.962;7.162;2023-02-26T14:43:49;6.80;98.80
15872;DHT22;8035;51.962;7.162;2023-02-26T14:46:17;6.90;98.80
15872;DHT22;8035;51.962;7.162;2023-02-26T14:48:43;6.60;98.20
15872;DHT22;8035;51.962;7.162;2023-02-26T14:57:01;6.40;99.50
15872;DHT22;8035;51.962;7.162;2023-02-26T15:24:32;6.10;99.90
15872;DHT22;8035;51.962;7.162;2023-02-26T15:27:01;6.00;99.90
15872;DHT22;8035;51.962;7.162;2023-02-26T15:29:35;5.80;99.90
15872;DHT22;8035;51.962;7.162;2023-02-26T15:32:27;5.80;99.90
15872;DHT22;8035;51.962;7.162;2023-02-26T15:35:18;5.80;99.90
15872;DHT22;8035;51.962;7.162;2023-02-26T15:37:56;5.70;99.90
15872;DHT22;8035;51.962;7.162;2023-02-26T15:40:24;5.50;99.90
15872;DHT22;8035;51.962;7.162;2023-02-26T15:42:54;5.40;99.90
15872;DHT22;8035;51.962;7.162;2023-02-26T15:48:06;5.20;99.90
15872;DHT22;8035;51.962;7.162;2023-02-26T15:50:39;5.20;99.90
15872;DHT22;8035;51.962;7.162;2023-02-26T15:53:09;5.20;99.90
15872;DHT22;8035;51.962;7.162;2023-02-26T15:55:50;5.20;99.90
15872;DHT22;8035;51.962;7.162;2023-02-26T15:58:28;5.20;99.90
15872;DHT22;8035;51.962;7.162;2023-02-26T16:00:55;5.20;99.90
15872;DHT22;8035;51.962;7.162;2023-02-26T16:03:26;5.20;99.90
15872;DHT22;8035;51.962;7.162;2023-02-26T16:08:58;5.40;99.90
15872;DHT22;8035;51.962;7.162;2023-02-26T16:11:28;5.50;99.90
15872;DHT22;8035;51.962;7.162;2023-02-26T16:13:55;5.40;99.90
15872;DHT22;8035;51.962;7.162;2023-02-26T16:16:23;5.20;99.90
15872;DHT22;8035;51.962;7.162;2023-02-26T16:18:50;5.10;99.90
15872;DHT22;8035;51.962;7.162;2023-02-26T16:21:28;5.00;99.90
15872;DHT22;8035;51.962;7.162;2023-02-26T16:23:55;4.90;99.90
15872;DHT22;8035;51.962;7.162;2023-02-26T16:26:28;4.80;99.90
15872;DHT22;8035;51.962;7.162;2023-02-26T16:29:21;4.80;99.90
15872;DHT22;8035;51.962;7.162;2023-02-26T16:31:51;4.80;99.90
15872;DHT22;8035;51.962;7.162;2023-02-26T16:47:52;4.60;99.90
15872;DHT22;8035;51.962;7.162;2023-02-26T16:50:24;4.50;99.90
15872;DHT22;8035;51.962;7.162;2023-02-26T16:53:00;4.40;99.90
15872;DHT22;8035;51.962;7.162;2023-02-26T16:55:29;4.30;99.90
15872;DHT22;8035;51.962;7.162;2023-02-26T16:57:57;4.30;99.90
15872;DHT22;8035;51.962;7.162;2023-02-26T17:00:24;4.30;99.90
15872;DHT22;8035;51.962;7.162;2023-02-26T17:03:20;4.30;99.90
15872;DHT22;8035;51.962;7.162;2023-02-26T17:05:54;4.40;99.90
15872;DHT22;8035;51.962;7.162;2023-02-26T17:08:26;4.40;99.90
15872;DHT22;8035;51.962;7.162;2023-02-26T17:11:05;4.40;99.90
15872;DHT22;8035;51.962;7.162;2023-02-26T17:13:33;4.30;99.90
15872;DHT22;8035;51.962;7.162;2023-02-26T17:16:05;4.40;99.90
15872;DHT22;8035;51.962;7.162;2023-02-26T17:18:32;4.30;99.90
15872;DHT22;8035;51.962;7.162;2023-02-26T17:20:58;4.30;99.90
15872;DHT22;8035;51.962;7.162;2023-02-26T17:23:31;4.30;99.90
15872;DHT22;8035;51.962;7.162;2023-02-26T17:25:58;4.20;99.90
15872;DHT22;8035;51.962;7.162;2023-02-26T17:28:32;4.20;99.90
15872;DHT22;8035;51.962;7.162;2023-02-26T17:31:02;4.20;99.90
15872;DHT22;8035;51.962;7.162;2023-02-26T17:33:28;4.20;99.90
15872;DHT22;8035;51.962;7.162;2023-02-26T17:38:46;4.10;99.90
15872;DHT22;8035;51.962;7.162;2023-02-26T17:41:16;4.10;99.90
15872;DHT22;8035;51.962;7.162;2023-02-26T17:43:42;4.10;99.90
15872;DHT22;8035;51.962;7.162;2023-02-26T17:46:10;4.00;99.90
15872;DHT22;8035;51.962;7.162;2023-02-26T17:48:36;4.00;99.90
15872;DHT22;8035;51.962;7.162;2023-02-26T17:51:02;4.00;99.90
15872;DHT22;8035;51.962;7.162;2023-02-26T17:53:28;3.90;99.90
15872;DHT22;8035;51.962;7.162;2023-02-26T17:55:58;3.90;99.90
15872;DHT22;8035;51.962;7.162;2023-02-26T17:58:43;3.80;99.90
15872;DHT22;8035;51.962;7.162;2023-02-26T18:01:10;3.70;99.90
15872;DHT22;8035;51.962;7.162;2023-02-26T18:03:36;3.70;99.90
15872;DHT22;8035;51.962;7.162;2023-02-26T18:06:04;3.60;99.90
15872;DHT22;8035;51.962;7.162;2023-02-26T18:08:32;3.50;99.90
15872;DHT22;8035;51.962;7.162;2023-02-26T18:10:59;3.50;99.90
15872;DHT22;8035;51.962;7.162;2023-02-26T18:13:25;3.40;99.90
15872;DHT22;8035;51.962;7.162;2023-02-26T18:15:52;3.30;99.90
15872;DHT22;8035;51.962;7.162;2023-02-26T18:18:19;3.20;99.90
15872;DHT22;8035;51.962;7.162;2023-02-26T18:23:30;3.10;99.90
15872;DHT22;8035;51.962;7.162;2023-02-26T18:25:56;3.10;99.90
15872;DHT22;8035;51.962;7.162;2023-02-26T18:28:40;3.00;99.90
15872;DHT22;8035;51.962;7.162;2023-02-26T18:31:05;3.00;99.90
15872;DHT22;8035;51.962;7.162;2023-02-26T18:33:34;3.00;99.90
15872;DHT22;8035;51.962;7.162;2023-02-26T18:36:02;2.90;99.90
15872;DHT22;8035;51.962;7.162;2023-02-26T18:38:28;2.90;99.90
15872;DHT22;8035;51.962;7.162;2023-02-26T18:40:54;2.80;99.90
15872;DHT22;8035;51.962;7.162;2023-02-26T18:46:05;2.70;99.90
15872;DHT22;8035;51.962;7.162;2023-02-26T18:48:33;2.70;99.90
15872;DHT22;8035;51.962;7.162;2023-02-26T18:50:59;2.70;99.90
15872;DHT22;8035;51.962;7.162;2023-02-26T18:53:25;2.70;99.90
15872;DHT22;8035;51.962;7.162;2023-02-26T18:55:53;2.60;99.90
15872;DHT22;8035;51.962;7.162;2023-02-26T18:58:22;2.60;99.90
15872;DHT22;8035;51.962;7.162;2023-02-26T19:00:48;2.60;99.90
15872;DHT22;8035;51.962;7.162;2023-02-26T19:03:14;2.60;99.90
15872;DHT22;8035;51.962;7.162;2023-02-26T19:05:40;2.60;99.90
15872;DHT22;8035;51.962;7.162;2023-02-26T19:08:05;2.60;99.90
15872;DHT22;8035;51.962;7.162;2023-02-26T19:10:31;2.50;99.90
15872;DHT22;8035;51.962;7.162;2023-02-26T19:12:58;2.50;99.90
15872;DHT22;8035;51.962;7.162;2023-02-26T19:15:24;2.50;99.90
15872;DHT22;8035;51.962;7.162;2023-02-26T19:20:34;2.50;99.90
15872;DHT22;8035;51.962;7.162;2023-02-26T19:23:00;2.60;99.90
15872;DHT22;8035;51.962;7.162;2023-02-26T19:25:27;2.60;99.90
15872;DHT22;8035;51.962;7.162;2023-02-26T19:27:54;2.70;99.90
15872;DHT22;8035;51.962;7.162;2023-02-26T19:30:21;2.70;99.90
15872;DHT22;8035;51.962;7.162;2023-02-26T19:32:48;2.70;99.90
15872;DHT22;8035;51.962;7.162;2023-02-26T19:35:14;2.70;99.90
15872;DHT22;8035;51.962;7.162;2023-02-26T19:37:40;2.70;99.90
15872;DHT22;8035;51.962;7.162;2023-02-26T19:40:06;2.70;99.90
15872;DHT22;8035;51.962;7.162;2023-02-26T19:42:38;2.70;99.90
15872;DHT22;8035;51.962;7.162;2023-02-26T19:45:04;2.70;99.90
15872;DHT22;8035;51.962;7.162;2023-02-26T19:47:29;2.70;99.90
15872;DHT22;8035;51.962;7.162;2023-02-26T19:49:55;2.70;99.90
15872;DHT22;8035;51.962;7.162;2023-02-26T19:52:20;2.70;99.90
15872;DHT22;8035;51.962;7.162;2023-02-26T19:54:46;2.60;99.90
15872;DHT22;8035;51.962;7.162;2023-02-26T19:57:12;2.60;99.90
15872;DHT22;8035;51.962;7.162;2023-02-26T19:59:56;2.50;99.90
15872;DHT22;8035;51.962;7.162;2023-02-26T20:02:23;2.50;99.90
15872;DHT22;8035;51.962;7.162;2023-02-26T20:04:49;2.50;99.90
15872;DHT22;8035;51.962;7.162;2023-02-26T20:07:15;2.50;99.90
15872;DHT22;8035;51.962;7.162;2023-02-26T20:09:40;2.50;99.90
15872;DHT22;8035;51.962;7.162;2023-02-26T20:12:06;2.40;99.90
15872;DHT22;8035;51.962;7.162;2023-02-26T20:14:32;2.40;99.90
15872;DHT22;8035;51.962;7.162;2023-02-26T20:16:58;2.40;99.90
15872;DHT22;8035;51.962;7.162;2023-02-26T20:19:24;2.40;99.90
15872;DHT22;8035;51.962;7.162;2023-02-26T20:21:49;2.40;99.90
15872;DHT22;8035;51.962;7.162;2023-02-26T20:24:15;2.40;99.90